Time;durP1;ratioP1;P1;durP2;ratioP2;P2;SDS_P1;SDS_P2;PMS_P1;PMS_P2;Temp;Humidity;BMP_temperature;BMP_pressure;BME280_temperature;BME280_humidity;BME280_pressure;Samples;Min_cycle;Max_cycle;Signal;HPM_P1;HPM_P2
2022/01/16 00:05:05;;;;;;;37.45;19.42;;;3.40;99.90;;;;;;5133674;27;20699;-50
2022/01/16 00:07:30;;;;;;;33.30;18.17;;;3.40;99.90;;;;;;5133565;27;20539;-50
2022/01/16 00:09:56;;;;;;;30.23;18.83;;;3.40;99.90;;;;;;5133273;27;20164;-50
2022/01/16 00:12:23;;;;;;;34.33;19.20;;;3.40;99.90;;;;;;5133117;27;20216;-50
2022/01/16 00:14:50;;;;;;;30.42;18.90;;;3.40;99.90;;;;;;5133369;27;20211;-50
2022/01/16 00:17:15;;;;;;;32.30;19.50;;;3.40;99.90;;;;;;5133137;27;20164;-50
2022/01/16 00:19:41;;;;;;;33.58;19.33;;;3.30;99.90;;;;;;5133186;27;20213;-50
2022/01/16 00:22:14;;;;;;;36.53;20.02;;;3.40;99.90;;;;;;5133181;27;20243;-50
2022/01/16 00:24:40;;;;;;;31.13;19.25;;;3.40;99.90;;;;;;5133300;27;20175;-51
2022/01/16 00:27:06;;;;;;;36.88;19.52;;;3.50;99.90;;;;;;5133132;27;20164;-50
2022/01/16 00:29:32;;;;;;;36.28;19.30;;;3.50;99.90;;;;;;5133102;27;20156;-50
2022/01/16 00:31:58;;;;;;;35.17;20.00;;;3.50;99.90;;;;;;5133733;27;20163;-49
2022/01/16 00:34:23;;;;;;;35.40;20.48;;;3.50;99.90;;;;;;5133010;27;20578;-50
2022/01/16 00:36:49;;;;;;;36.35;20.17;;;3.50;99.90;;;;;;5132431;27;20164;-50
2022/01/16 00:39:14;;;;;;;38.28;21.58;;;3.50;99.90;;;;;;5132921;27;20662;-49
2022/01/16 00:41:40;;;;;;;39.42;19.88;;;3.50;99.90;;;;;;5132898;27;20191;-50
2022/01/16 00:44:07;;;;;;;37.60;20.90;;;3.50;99.90;;;;;;5132941;27;20156;-50
2022/01/16 00:46:32;;;;;;;35.42;19.27;;;3.60;99.90;;;;;;5132852;27;20156;-50
2022/01/16 00:48:58;;;;;;;36.33;20.17;;;3.60;99.90;;;;;;5133113;27;20228;-50
2022/01/16 00:51:24;;;;;;;33.67;18.30;;;3.60;99.90;;;;;;5133137;28;20212;-49
2022/01/16 00:53:50;;;;;;;34.28;15.88;;;3.60;99.90;;;;;;5132785;27;20686;-49
2022/01/16 00:56:15;;;;;;;30.08;16.33;;;3.60;99.90;;;;;;5132837;28;20175;-48
2022/01/16 00:58:41;;;;;;;33.42;16.77;;;3.50;99.90;;;;;;5132785;28;20164;-48
2022/01/16 01:01:08;;;;;;;32.35;17.35;;;3.50;99.90;;;;;;5132795;27;20192;-49
2022/01/16 01:03:33;;;;;;;35.00;18.65;;;3.50;99.90;;;;;;5132774;27;20163;-49
2022/01/16 01:05:59;;;;;;;37.55;19.38;;;3.50;99.90;;;;;;5132992;27;20211;-48
2022/01/16 01:08:28;;;;;;;35.30;18.67;;;3.60;99.90;;;;;;5132723;27;20170;-50
2022/01/16 01:10:54;;;;;;;35.17;19.17;;;3.60;99.90;;;;;;5132501;27;20199;-50
2022/01/16 01:13:30;;;;;;;38.85;21.92;;;3.50;99.90;;;;;;5132815;27;20276;-50
2022/01/16 01:16:02;;;;;;;41.58;20.13;;;3.60;99.90;;;;;;5132889;27;20171;-49
2022/01/16 01:18:30;;;;;;;36.55;18.83;;;3.60;99.90;;;;;;5133164;27;20168;-50
2022/01/16 01:20:57;;;;;;;31.08;16.58;;;3.50;99.90;;;;;;5132541;27;20164;-50
2022/01/16 01:23:22;;;;;;;33.00;17.30;;;3.50;99.90;;;;;;5132806;27;20191;-50
2022/01/16 01:25:48;;;;;;;37.00;18.83;;;3.50;99.90;;;;;;5132434;27;20164;-50
2022/01/16 01:28:14;;;;;;;36.50;17.83;;;3.50;99.90;;;;;;5132590;27;20183;-50
2022/01/16 01:30:40;;;;;;;30.35;16.45;;;3.50;99.90;;;;;;5132435;27;20169;-50
2022/01/16 01:33:06;;;;;;;25.15;14.77;;;3.50;99.90;;;;;;5132425;27;20644;-50
2022/01/16 01:35:41;;;;;;;25.90;14.23;;;3.50;99.90;;;;;;5132477;27;20301;-50
2022/01/16 01:38:08;;;;;;;27.00;14.57;;;3.50;99.90;;;;;;5132377;27;20221;-50
2022/01/16 01:40:35;;;;;;;25.77;14.70;;;3.50;99.90;;;;;;5132627;27;20171;-50
2022/01/16 01:43:17;;;;;;;26.33;14.52;;;3.50;99.90;;;;;;5132631;27;20164;-50
2022/01/16 01:51:37;;;;;;;30.80;16.23;;;3.40;99.90;;;;;;5135999;27;20214;-50
2022/01/16 01:54:05;;;;;;;26.45;14.82;;;3.40;99.90;;;;;;5136085;27;20211;-49
2022/01/16 01:56:31;;;;;;;24.27;14.20;;;3.40;99.90;;;;;;5136244;27;20160;-51
2022/01/16 01:58:59;;;;;;;26.63;15.40;;;3.40;99.90;;;;;;5136132;27;20171;-50
2022/01/16 02:01:25;;;;;;;28.00;15.65;;;3.40;99.90;;;;;;5135815;27;20626;-50
2022/01/16 02:03:51;;;;;;;28.63;15.05;;;3.40;99.90;;;;;;5135792;27;20160;-48
2022/01/16 02:06:22;;;;;;;25.15;14.90;;;3.50;99.90;;;;;;5135999;27;20638;-49
2022/01/16 02:08:51;;;;;;;24.70;13.75;;;3.50;99.90;;;;;;5135700;27;20217;-48
2022/01/16 02:11:18;;;;;;;26.38;15.30;;;3.50;99.90;;;;;;5135576;27;20220;-49
2022/01/16 02:13:57;;;;;;;25.25;14.07;;;3.50;99.90;;;;;;5135418;27;20643;-49
2022/01/16 02:30:54;;;;;;;26.73;15.82;;;3.50;99.90;;;;;;5135505;27;20225;-49
2022/01/16 02:35:43;;;;;;;26.40;14.90;;;3.50;99.90;;;;;;5135402;27;20168;-49
2022/01/16 02:38:10;;;;;;;19.60;12.95;;;3.50;99.90;;;;;;5135013;27;20638;-47
2022/01/16 02:40:38;;;;;;;29.35;14.80;;;3.50;99.90;;;;;;5135088;27;20168;-49
2022/01/16 02:43:05;;;;;;;25.45;15.13;;;3.50;99.90;;;;;;5135153;27;20200;-48
2022/01/16 02:45:32;;;;;;;27.10;14.98;;;3.50;99.90;;;;;;5135285;27;20246;-49
2022/01/16 02:48:05;;;;;;;28.17;15.75;;;3.50;99.90;;;;;;5116707;27;20164;-48
2022/01/16 02:50:33;;;;;;;31.10;16.48;;;3.60;99.90;;;;;;5135079;27;20168;-47
2022/01/16 02:52:59;;;;;;;28.83;15.73;;;3.50;99.90;;;;;;5135010;27;20664;-48
2022/01/16 02:55:24;;;;;;;28.38;15.57;;;3.60;99.90;;;;;;5134966;27;20188;-48
2022/01/16 02:57:52;;;;;;;29.67;15.48;;;3.60;99.90;;;;;;5134570;27;20168;-48
2022/01/16 03:00:19;;;;;;;27.73;16.50;;;3.50;99.90;;;;;;5134208;27;20171;-48
2022/01/16 03:02:44;;;;;;;31.13;15.75;;;3.60;99.90;;;;;;5134552;27;20616;-50
2022/01/16 03:05:12;;;;;;;25.10;16.40;;;3.50;99.90;;;;;;5134767;27;20194;-47
2022/01/16 03:07:37;;;;;;;31.48;17.85;;;3.40;99.90;;;;;;5134508;27;20164;-47
2022/01/16 03:12:52;;;;;;;29.90;15.80;;;3.50;99.90;;;;;;5134594;27;20180;-49
2022/01/16 03:15:19;;;;;;;33.92;16.77;;;3.50;99.90;;;;;;5134756;27;20172;-48
2022/01/16 03:23:12;;;;;;;30.45;15.77;;;3.60;99.90;;;;;;5134426;27;20205;-48
2022/01/16 03:25:37;;;;;;;31.67;16.15;;;3.60;99.90;;;;;;5115739;27;20568;-49
2022/01/16 03:28:03;;;;;;;27.55;15.50;;;3.60;99.90;;;;;;5134029;27;20551;-48
2022/01/16 03:30:29;;;;;;;28.85;16.95;;;3.50;99.90;;;;;;5115903;27;20178;-47
2022/01/16 03:32:54;;;;;;;32.60;17.55;;;3.60;99.90;;;;;;5133837;27;20195;-48
2022/01/16 03:35:20;;;;;;;33.50;17.15;;;3.50;99.90;;;;;;5115437;27;20179;-48
2022/01/16 03:37:46;;;;;;;41.17;20.40;;;3.50;99.90;;;;;;5133907;27;20164;-49
2022/01/16 03:40:12;;;;;;;32.45;17.35;;;3.40;99.90;;;;;;5133816;27;20198;-48
2022/01/16 03:42:41;;;;;;;34.75;18.77;;;3.40;99.90;;;;;;5133794;27;20578;-48
2022/01/16 03:45:08;;;;;;;36.92;17.23;;;3.40;99.90;;;;;;5133689;27;20171;-48
2022/01/16 03:47:34;;;;;;;37.83;19.10;;;3.40;99.90;;;;;;5133767;27;20164;-48
2022/01/16 03:50:00;;;;;;;30.00;17.08;;;3.40;99.90;;;;;;5134147;27;20623;-48
2022/01/16 03:52:26;;;;;;;33.53;18.60;;;3.40;99.90;;;;;;5133614;27;20168;-49
2022/01/16 03:54:51;;;;;;;35.20;19.23;;;3.40;99.90;;;;;;5133510;27;20284;-48
2022/01/16 03:57:17;;;;;;;38.33;18.90;;;3.40;99.90;;;;;;5133523;27;20160;-49
2022/01/16 03:59:42;;;;;;;41.17;20.48;;;3.40;99.90;;;;;;5133565;27;20224;-49
2022/01/16 04:02:08;;;;;;;37.80;22.05;;;3.40;99.90;;;;;;5133498;27;20236;-48
2022/01/16 04:04:34;;;;;;;39.97;21.15;;;3.50;99.90;;;;;;5133405;27;20167;-48
2022/01/16 04:07:00;;;;;;;46.13;21.98;;;3.50;99.90;;;;;;5133789;27;20222;-48
2022/01/16 04:09:26;;;;;;;41.28;21.63;;;3.60;99.90;;;;;;5133630;27;20172;-48
2022/01/16 04:11:55;;;;;;;46.03;23.48;;;3.60;99.90;;;;;;5132379;27;20220;-49
2022/01/16 04:17:06;;;;;;;43.22;21.77;;;3.60;99.90;;;;;;5133288;27;20167;-48
2022/01/16 04:19:32;;;;;;;47.85;21.90;;;3.60;99.90;;;;;;5133223;27;20164;-48
2022/01/16 04:21:57;;;;;;;40.67;21.52;;;3.60;99.90;;;;;;5133417;27;20220;-48
2022/01/16 04:24:23;;;;;;;40.45;21.38;;;3.70;99.90;;;;;;5133167;27;20627;-48
2022/01/16 04:26:48;;;;;;;40.47;21.90;;;3.60;99.90;;;;;;5133125;27;20160;-48
2022/01/16 04:29:14;;;;;;;44.78;21.73;;;3.60;99.90;;;;;;5133043;27;20171;-48
2022/01/16 04:31:39;;;;;;;39.50;20.58;;;3.60;99.90;;;;;;5133018;27;20168;-47
2022/01/16 04:34:05;;;;;;;40.33;20.55;;;3.70;99.90;;;;;;5132968;27;20259;-48
2022/01/16 04:36:30;;;;;;;48.65;23.17;;;3.60;99.90;;;;;;5133338;27;20225;-49
2022/01/16 04:38:56;;;;;;;42.67;22.20;;;3.60;99.90;;;;;;5132976;27;20567;-50
2022/01/16 04:44:06;;;;;;;43.03;21.63;;;3.60;99.90;;;;;;5133250;27;20174;-48
2022/01/16 04:46:33;;;;;;;44.15;21.00;;;3.70;99.90;;;;;;5132898;27;20297;-48
2022/01/16 04:49:00;;;;;;;40.38;21.75;;;3.60;99.90;;;;;;5133157;27;20627;-48
2022/01/16 04:51:27;;;;;;;41.47;22.08;;;3.60;99.90;;;;;;5132980;27;20167;-47
2022/01/16 04:53:52;;;;;;;44.55;23.30;;;3.60;99.90;;;;;;5132740;27;20203;-49
2022/01/16 04:56:18;;;;;;;48.72;23.88;;;3.70;99.90;;;;;;5133135;27;20258;-49
2022/01/16 04:58:44;;;;;;;40.72;23.38;;;3.70;99.90;;;;;;5133047;27;20205;-47
2022/01/16 05:01:10;;;;;;;40.78;22.70;;;3.70;99.90;;;;;;5132780;27;20187;-47
2022/01/16 05:03:37;;;;;;;40.63;21.25;;;3.80;99.90;;;;;;5132707;27;20589;-48
2022/01/16 05:06:03;;;;;;;43.72;22.55;;;3.70;99.90;;;;;;5132887;27;20172;-47
2022/01/16 05:08:29;;;;;;;43.67;22.33;;;3.70;99.90;;;;;;5133237;27;20617;-48
2022/01/16 05:10:57;;;;;;;46.75;23.52;;;3.80;99.90;;;;;;5132563;27;20353;-47
2022/01/16 05:18:37;;;;;;;41.58;23.20;;;3.90;99.90;;;;;;5132873;27;20221;-49
2022/01/16 05:21:03;;;;;;;48.88;24.02;;;3.90;99.90;;;;;;5132541;27;20171;-48
2022/01/16 05:23:29;;;;;;;45.05;23.13;;;3.90;99.90;;;;;;5135457;27;20246;-49
2022/01/16 05:25:55;;;;;;;44.25;23.95;;;3.90;99.90;;;;;;5136456;27;20167;-48
2022/01/16 05:28:21;;;;;;;43.20;23.73;;;3.90;99.90;;;;;;5136738;27;20541;-48
2022/01/16 05:30:49;;;;;;;49.95;23.52;;;3.90;99.90;;;;;;5136339;27;20164;-48
2022/01/16 05:33:14;;;;;;;50.03;26.27;;;3.80;99.90;;;;;;5136261;27;20718;-48
2022/01/16 05:35:41;;;;;;;48.45;25.60;;;3.80;99.90;;;;;;5117817;27;20207;-48
2022/01/16 05:38:07;;;;;;;49.38;24.50;;;3.90;99.90;;;;;;5136269;27;20163;-48
2022/01/16 05:40:32;;;;;;;52.65;26.48;;;3.80;99.90;;;;;;5136205;27;20164;-48
2022/01/16 05:42:58;;;;;;;44.15;23.60;;;3.90;99.90;;;;;;5118000;27;20164;-48
2022/01/16 05:45:24;;;;;;;50.70;24.98;;;3.80;99.90;;;;;;5136400;27;20164;-47
2022/01/16 05:47:50;;;;;;;51.70;26.92;;;3.80;99.90;;;;;;5135963;27;20168;-48
2022/01/16 05:50:16;;;;;;;50.72;25.77;;;3.80;99.90;;;;;;5136046;27;20161;-47
2022/01/16 05:52:42;;;;;;;46.33;24.63;;;3.80;99.90;;;;;;5135933;27;20176;-48
2022/01/16 05:55:08;;;;;;;50.80;26.20;;;3.80;99.90;;;;;;5135957;27;20225;-49
2022/01/16 05:57:33;;;;;;;45.10;24.95;;;3.90;99.90;;;;;;5135926;27;20192;-49
2022/01/16 05:59:59;;;;;;;50.17;25.55;;;3.80;99.90;;;;;;5136254;27;20221;-49
2022/01/16 06:02:26;;;;;;;47.05;25.25;;;3.90;99.90;;;;;;5135738;27;20160;-49
2022/01/16 06:04:51;;;;;;;55.03;27.13;;;3.90;99.90;;;;;;5135769;27;20737;-49
2022/01/16 06:07:18;;;;;;;55.65;26.42;;;3.90;99.90;;;;;;5135739;27;20195;-49
2022/01/16 06:09:43;;;;;;;48.75;25.17;;;3.90;99.90;;;;;;5135970;27;20167;-48
2022/01/16 06:12:10;;;;;;;52.50;25.33;;;3.90;99.90;;;;;;5135525;27;20216;-49
2022/01/16 06:14:35;;;;;;;48.20;26.17;;;3.90;99.90;;;;;;5135533;27;20198;-49
2022/01/16 06:17:01;;;;;;;54.28;27.42;;;3.90;99.90;;;;;;5136107;27;20164;-49
2022/01/16 06:19:26;;;;;;;48.92;26.65;;;3.90;99.90;;;;;;5135848;27;20204;-49
2022/01/16 06:21:52;;;;;;;50.70;27.67;;;3.90;99.90;;;;;;5135370;27;20245;-48
2022/01/16 06:24:17;;;;;;;51.20;26.85;;;3.90;99.90;;;;;;5135418;27;20168;-48
2022/01/16 06:26:43;;;;;;;51.72;27.45;;;3.90;99.90;;;;;;5135325;27;20251;-49
2022/01/16 06:29:09;;;;;;;45.88;24.40;;;4.00;99.90;;;;;;5116830;27;20193;-48
2022/01/16 06:31:35;;;;;;;56.15;28.70;;;4.00;99.90;;;;;;5135230;27;20168;-48
2022/01/16 06:34:04;;;;;;;49.17;26.85;;;3.90;99.90;;;;;;5116111;27;20235;-47
2022/01/16 06:36:29;;;;;;;48.72;26.70;;;4.00;99.90;;;;;;5135702;27;20240;-48
2022/01/16 06:38:56;;;;;;;51.47;25.83;;;4.00;99.90;;;;;;5135103;27;20674;-49
2022/01/16 06:41:22;;;;;;;47.88;26.70;;;4.00;99.90;;;;;;5135055;27;20167;-48
2022/01/16 06:43:47;;;;;;;48.50;25.58;;;4.00;99.90;;;;;;5134883;27;20247;-48
2022/01/16 06:46:13;;;;;;;58.10;27.85;;;4.00;99.90;;;;;;5135135;27;20200;-47
2022/01/16 06:48:40;;;;;;;58.55;26.05;;;4.00;99.90;;;;;;5134881;27;20176;-47
2022/01/16 06:51:06;;;;;;;52.60;26.02;;;4.00;99.90;;;;;;5134814;27;20160;-49
2022/01/16 06:53:32;;;;;;;51.97;26.25;;;4.00;99.90;;;;;;5135046;27;20239;-48
2022/01/16 06:55:58;;;;;;;52.15;25.67;;;4.00;99.90;;;;;;5135147;27;20565;-48
2022/01/16 06:58:23;;;;;;;52.53;27.58;;;4.00;99.90;;;;;;5134690;27;20643;-47
2022/01/16 07:00:49;;;;;;;57.15;27.88;;;3.90;99.90;;;;;;5134653;27;20198;-49
2022/01/16 07:03:15;;;;;;;55.28;27.98;;;4.00;99.90;;;;;;5134553;27;20627;-49
2022/01/16 07:05:42;;;;;;;41.25;24.20;;;4.00;99.90;;;;;;5134696;27;20175;-47
2022/01/16 07:08:07;;;;;;;48.75;25.83;;;3.90;99.90;;;;;;5134539;27;20160;-47
2022/01/16 07:10:33;;;;;;;53.45;28.05;;;4.00;99.90;;;;;;5134286;27;20216;-46
2022/01/16 07:12:58;;;;;;;51.75;26.55;;;3.90;99.90;;;;;;5134811;27;20164;-47
2022/01/16 07:15:24;;;;;;;49.20;25.40;;;4.00;99.90;;;;;;5134431;27;20168;-46
2022/01/16 07:17:49;;;;;;;47.90;25.55;;;4.00;99.90;;;;;;5134318;27;20168;-48
2022/01/16 07:20:15;;;;;;;50.17;26.80;;;4.00;99.90;;;;;;5134627;27;20164;-48
2022/01/16 07:22:42;;;;;;;47.67;26.75;;;4.00;99.90;;;;;;5134458;27;20569;-46
2022/01/16 07:25:08;;;;;;;37.17;20.33;;;4.00;99.90;;;;;;5134113;27;20734;-47
2022/01/16 07:27:33;;;;;;;50.10;25.67;;;4.10;99.90;;;;;;5134168;27;20199;-48
2022/01/16 07:29:59;;;;;;;44.50;25.08;;;4.10;99.90;;;;;;5134426;27;20165;-48
2022/01/16 07:32:25;;;;;;;46.30;25.55;;;4.20;99.90;;;;;;5134073;27;20213;-47
2022/01/16 07:34:50;;;;;;;48.70;26.77;;;4.10;99.90;;;;;;5133896;27;20211;-47
2022/01/16 07:37:16;;;;;;;47.17;25.98;;;4.10;99.90;;;;;;5133905;27;20164;-48
2022/01/16 07:39:41;;;;;;;45.60;26.48;;;4.20;99.90;;;;;;5133912;27;20171;-48
2022/01/16 07:42:07;;;;;;;50.65;28.52;;;4.20;99.90;;;;;;5133781;27;20160;-49
2022/01/16 07:44:33;;;;;;;46.40;24.55;;;4.20;99.90;;;;;;5133920;27;20164;-49
2022/01/16 07:46:58;;;;;;;49.45;26.92;;;4.20;99.90;;;;;;5133634;27;20578;-50
2022/01/16 07:49:24;;;;;;;48.38;26.85;;;4.20;99.90;;;;;;5133733;27;20655;-50
2022/01/16 07:51:49;;;;;;;50.92;27.20;;;4.20;99.90;;;;;;5133798;27;20172;-50
2022/01/16 07:54:15;;;;;;;51.05;25.35;;;4.20;99.90;;;;;;5133362;27;20604;-50
2022/01/16 07:56:41;;;;;;;56.03;27.77;;;4.30;99.90;;;;;;5133104;27;20570;-51
2022/01/16 07:59:06;;;;;;;44.20;23.65;;;4.30;99.90;;;;;;5133578;27;20174;-50
2022/01/16 08:01:32;;;;;;;45.17;24.25;;;4.30;99.90;;;;;;5133714;27;20168;-49
2022/01/16 08:03:57;;;;;;;45.88;25.75;;;4.30;99.90;;;;;;5133759;27;20175;-50
2022/01/16 08:06:24;;;;;;;52.63;29.38;;;4.30;99.90;;;;;;5133497;27;20168;-50
2022/01/16 08:08:50;;;;;;;45.40;26.38;;;4.30;99.90;;;;;;5133633;27;20192;-50
2022/01/16 08:11:15;;;;;;;53.63;29.08;;;4.30;99.90;;;;;;5132744;27;20254;-50
2022/01/16 08:13:41;;;;;;;41.25;20.17;;;4.30;99.90;;;;;;5133180;27;20568;-50
2022/01/16 08:16:08;;;;;;;47.15;24.50;;;4.30;99.90;;;;;;5115272;27;20202;-50
2022/01/16 08:18:34;;;;;;;49.60;26.83;;;4.30;99.90;;;;;;5133530;27;20251;-50
2022/01/16 08:21:01;;;;;;;45.60;26.52;;;4.30;99.90;;;;;;5133448;27;20187;-50
2022/01/16 08:23:27;;;;;;;53.08;28.17;;;4.30;99.90;;;;;;5131980;27;20183;-51
2022/01/16 08:25:53;;;;;;;47.00;24.40;;;4.30;99.90;;;;;;5142125;27;20167;-52
2022/01/16 08:28:19;;;;;;;48.45;26.88;;;4.30;99.90;;;;;;5152635;27;20164;-50
2022/01/16 08:30:45;;;;;;;47.40;25.23;;;4.30;99.90;;;;;;5152403;27;20172;-50
2022/01/16 08:33:10;;;;;;;45.90;24.23;;;4.30;99.90;;;;;;5152597;27;20658;-50
2022/01/16 08:35:36;;;;;;;48.85;25.80;;;4.30;99.90;;;;;;5152608;27;20637;-50
2022/01/16 08:38:02;;;;;;;51.53;27.33;;;4.30;99.90;;;;;;5152474;27;20178;-50
2022/01/16 08:40:27;;;;;;;51.42;28.58;;;4.30;99.90;;;;;;5152822;27;20167;-51
2022/01/16 08:42:53;;;;;;;46.08;25.73;;;4.30;99.90;;;;;;5152557;27;20163;-50
2022/01/16 08:45:19;;;;;;;53.92;26.45;;;4.30;99.90;;;;;;5152453;27;20250;-44
2022/01/16 08:47:45;;;;;;;38.40;20.25;;;4.40;99.90;;;;;;5152494;27;20163;-44
2022/01/16 08:50:12;;;;;;;46.33;22.67;;;4.40;99.90;;;;;;5152463;27;20198;-47
2022/01/16 08:52:39;;;;;;;45.90;25.35;;;4.40;99.90;;;;;;5152016;27;20174;-51
2022/01/16 08:55:06;;;;;;;46.95;24.00;;;4.40;99.90;;;;;;5146846;27;20211;-48
2022/01/16 08:57:32;;;;;;;43.72;23.98;;;4.40;99.90;;;;;;5132749;27;20163;-50
2022/01/16 08:59:57;;;;;;;46.95;25.95;;;4.40;99.90;;;;;;5136327;27;20178;-50
2022/01/16 09:02:24;;;;;;;43.88;23.83;;;4.40;99.90;;;;;;5135639;27;20160;-50
2022/01/16 09:04:49;;;;;;;46.00;25.48;;;4.40;99.90;;;;;;5116973;27;20502;-56
2022/01/16 09:07:15;;;;;;;42.28;24.55;;;4.40;99.90;;;;;;5135817;27;20171;-53
2022/01/16 09:09:41;;;;;;;42.53;23.70;;;4.50;99.90;;;;;;5135772;27;20623;-53
2022/01/16 09:12:07;;;;;;;40.15;21.73;;;4.50;99.90;;;;;;5135457;27;20247;-52
2022/01/16 09:14:33;;;;;;;41.63;23.33;;;4.50;99.90;;;;;;5135709;27;20256;-53
2022/01/16 09:16:58;;;;;;;41.40;21.45;;;4.50;99.90;;;;;;5135547;27;20172;-49
2022/01/16 09:19:24;;;;;;;48.13;21.95;;;4.50;99.90;;;;;;5135379;27;20250;-49
2022/01/16 09:21:49;;;;;;;41.80;20.98;;;4.60;99.90;;;;;;5135267;27;20164;-52
2022/01/16 09:24:15;;;;;;;43.97;23.50;;;4.50;99.90;;;;;;5135292;27;20183;-51
2022/01/16 09:26:40;;;;;;;46.00;24.55;;;4.60;99.90;;;;;;5135288;27;20627;-48
2022/01/16 09:29:06;;;;;;;42.13;22.83;;;4.70;99.90;;;;;;5134983;27;20172;-48
2022/01/16 09:31:31;;;;;;;40.70;19.63;;;4.70;99.90;;;;;;5135305;27;20171;-49
2022/01/16 09:33:58;;;;;;;44.20;23.15;;;4.70;99.90;;;;;;5116824;27;20340;-48
2022/01/16 09:36:24;;;;;;;37.90;20.90;;;4.70;99.90;;;;;;5135246;27;20220;-50
2022/01/16 09:38:49;;;;;;;40.80;22.08;;;4.70;99.90;;;;;;5135049;27;20247;-48
2022/01/16 09:41:15;;;;;;;44.85;21.08;;;4.80;99.90;;;;;;5134937;27;20174;-48
2022/01/16 09:43:41;;;;;;;48.67;23.25;;;4.80;99.90;;;;;;5134151;27;20179;-46
2022/01/16 09:46:07;;;;;;;38.13;21.75;;;4.80;99.90;;;;;;5116338;27;20171;-52
2022/01/16 09:48:33;;;;;;;38.90;20.30;;;4.90;99.90;;;;;;5134600;27;20246;-48
2022/01/16 09:50:59;;;;;;;36.58;21.15;;;4.90;99.90;;;;;;5116705;27;20248;-52
2022/01/16 09:53:25;;;;;;;42.03;21.45;;;5.00;99.90;;;;;;5134833;27;20199;-52
2022/01/16 09:55:50;;;;;;;43.75;22.02;;;5.00;99.90;;;;;;5134228;27;20179;-45
2022/01/16 09:58:16;;;;;;;39.28;19.75;;;5.10;99.90;;;;;;5134966;27;20225;-50
2022/01/16 10:00:42;;;;;;;39.47;19.42;;;5.00;99.90;;;;;;5134680;27;20171;-52
2022/01/16 10:03:09;;;;;;;40.67;20.15;;;5.00;99.90;;;;;;5134550;27;20168;-50
2022/01/16 10:05:37;;;;;;;37.22;20.42;;;5.00;99.90;;;;;;5134776;27;20172;-48
2022/01/16 10:08:05;;;;;;;35.33;19.77;;;5.00;99.90;;;;;;5134373;27;20866;-55
2022/01/16 10:10:37;;;;;;;41.35;21.70;;;5.00;99.90;;;;;;5133573;27;20540;-54
2022/01/16 10:13:20;;;;;;;44.78;22.58;;;5.00;99.90;;;;;;5134242;27;20260;-53
2022/01/16 10:15:54;;;;;;;41.20;21.67;;;5.00;99.90;;;;;;5133906;27;20269;-55
2022/01/16 10:18:34;;;;;;;43.40;23.27;;;5.10;99.90;;;;;;5115980;27;20639;-57
2022/01/16 10:21:00;;;;;;;46.15;22.40;;;5.10;99.90;;;;;;5134870;27;20220;-56
2022/01/16 10:23:26;;;;;;;47.53;22.95;;;5.10;99.90;;;;;;5134260;27;20172;-58
2022/01/16 10:25:52;;;;;;;39.65;22.70;;;5.10;99.90;;;;;;5134202;27;20171;-51
2022/01/16 10:28:23;;;;;;;42.28;22.13;;;5.10;99.90;;;;;;5134178;27;20658;-51
2022/01/16 10:30:52;;;;;;;45.40;22.08;;;5.20;99.90;;;;;;5134086;27;20513;-53
2022/01/16 10:33:21;;;;;;;42.60;21.88;;;5.20;99.90;;;;;;5133874;27;20569;-52
2022/01/16 10:35:50;;;;;;;43.35;23.17;;;5.20;99.90;;;;;;5133830;27;20185;-54
2022/01/16 10:38:20;;;;;;;46.05;23.48;;;5.30;99.90;;;;;;5134014;27;20166;-51
2022/01/16 10:40:50;;;;;;;44.42;23.67;;;5.20;99.90;;;;;;5133735;27;20176;-55
2022/01/16 10:43:21;;;;;;;39.95;21.23;;;5.30;99.90;;;;;;5133822;27;20654;-55
2022/01/16 10:45:51;;;;;;;55.75;23.50;;;5.30;99.90;;;;;;5133775;27;20160;-52
2022/01/16 10:48:23;;;;;;;46.28;24.15;;;5.30;99.90;;;;;;5134005;27;20191;-52
2022/01/16 10:50:49;;;;;;;45.30;23.25;;;5.30;99.90;;;;;;5134024;27;20220;-49
2022/01/16 10:53:16;;;;;;;44.75;22.65;;;5.40;99.90;;;;;;5133539;27;20614;-54
2022/01/16 10:55:45;;;;;;;43.95;23.50;;;5.40;99.90;;;;;;5133634;27;20187;-49
2022/01/16 10:58:25;;;;;;;45.22;22.90;;;5.40;99.90;;;;;;5133714;27;20171;-60
2022/01/16 11:00:54;;;;;;;51.30;23.77;;;5.40;99.90;;;;;;5133744;27;20250;-50
2022/01/16 11:03:22;;;;;;;41.40;22.25;;;5.40;99.90;;;;;;5133246;27;20160;-51
2022/01/16 11:05:49;;;;;;;41.00;20.00;;;5.50;99.90;;;;;;5133309;27;20164;-54
2022/01/16 11:08:20;;;;;;;33.00;19.60;;;5.40;99.90;;;;;;5133446;27;20175;-52
2022/01/16 11:10:48;;;;;;;43.83;22.55;;;5.40;99.90;;;;;;5133053;27;20710;-60
2022/01/16 11:13:17;;;;;;;43.92;21.63;;;5.60;99.90;;;;;;5132931;27;20284;-49
2022/01/16 11:15:46;;;;;;;47.10;22.42;;;5.50;99.90;;;;;;5133453;27;20241;-49
2022/01/16 11:18:12;;;;;;;40.53;20.58;;;5.60;99.90;;;;;;5132752;27;20173;-50
2022/01/16 11:20:39;;;;;;;46.90;23.27;;;5.60;99.90;;;;;;5132724;27;20167;-48
2022/01/16 11:23:28;;;;;;;45.28;22.92;;;5.60;99.90;;;;;;5133040;27;20167;-49
2022/01/16 11:26:00;;;;;;;41.28;21.08;;;5.60;99.90;;;;;;5132957;27;20159;-50
2022/01/16 11:28:26;;;;;;;44.92;20.17;;;5.50;99.90;;;;;;5132887;27;20171;-50
2022/01/16 11:31:01;;;;;;;40.83;20.58;;;5.50;99.90;;;;;;5132904;27;20164;-50
2022/01/16 11:33:28;;;;;;;40.50;21.63;;;5.50;99.90;;;;;;5133200;27;20286;-49
2022/01/16 11:35:56;;;;;;;36.78;19.38;;;5.50;99.90;;;;;;5132740;27;20199;-48
2022/01/16 11:38:27;;;;;;;47.13;23.95;;;5.60;99.90;;;;;;5132828;27;20203;-49
2022/01/16 11:40:53;;;;;;;36.78;19.17;;;5.70;99.90;;;;;;5132189;27;20574;-51
2022/01/16 11:43:32;;;;;;;42.72;22.23;;;5.60;99.90;;;;;;5132407;27;20164;-49
2022/01/16 11:46:17;;;;;;;43.10;23.88;;;5.70;99.90;;;;;;5132740;27;20183;-54
2022/01/16 11:49:00;;;;;;;38.17;20.25;;;5.80;99.90;;;;;;5132464;27;20171;-54
2022/01/16 11:51:35;;;;;;;42.42;21.65;;;5.80;99.90;;;;;;5132521;27;20190;-48
2022/01/16 11:54:34;;;;;;;26.02;15.18;;;5.80;99.90;;;;;;5132620;27;20203;-47
2022/01/16 11:57:20;;;;;;;40.80;21.38;;;5.70;99.90;;;;;;5077094;27;20188;-47
2022/01/16 11:59:47;;;;;;;38.08;19.25;;;5.80;99.90;;;;;;5132263;27;20194;-53
2022/01/16 12:02:13;;;;;;;42.03;21.42;;;5.80;99.90;;;;;;5132012;27;20164;-53
2022/01/16 12:04:38;;;;;;;36.35;19.55;;;5.90;99.90;;;;;;5132231;27;20168;-50
2022/01/16 12:07:13;;;;;;;40.45;20.98;;;5.90;99.90;;;;;;5132004;27;20167;-54
2022/01/16 12:12:12;;;;;;;35.08;17.60;;;5.90;99.90;;;;;;5131381;27;20212;-55
2022/01/16 12:14:49;;;;;;;33.53;17.90;;;5.90;99.90;;;;;;5131532;27;20244;-48
2022/01/16 12:17:27;;;;;;;34.50;16.63;;;5.80;99.90;;;;;;5131698;27;20172;-54
2022/01/16 12:19:53;;;;;;;30.33;17.23;;;5.80;99.90;;;;;;5131957;27;20289;-48
2022/01/16 12:22:44;;;;;;;32.05;17.08;;;5.90;99.90;;;;;;5131898;27;20169;-54
2022/01/16 12:25:36;;;;;;;25.98;13.85;;;5.80;99.90;;;;;;5131411;27;20164;-54
2022/01/16 12:28:17;;;;;;;35.95;18.40;;;5.70;99.90;;;;;;5131617;27;20194;-49
2022/01/16 12:30:58;;;;;;;33.65;18.55;;;5.70;99.90;;;;;;5132070;27;20168;-53
2022/01/16 12:33:34;;;;;;;35.15;17.45;;;5.60;99.90;;;;;;5131041;27;20206;-48
2022/01/16 12:36:08;;;;;;;32.83;17.65;;;5.60;99.90;;;;;;5131738;27;20678;-47
2022/01/16 12:38:38;;;;;;;36.30;20.00;;;6.30;99.90;;;;;;5131357;27;20167;-51
2022/01/16 12:41:10;;;;;;;35.70;20.13;;;5.70;99.90;;;;;;5131044;27;20164;-50
2022/01/16 12:43:55;;;;;;;40.70;19.48;;;5.70;99.90;;;;;;5131830;27;20191;-49
2022/01/16 12:46:33;;;;;;;35.88;18.23;;;5.70;99.90;;;;;;5110653;28;20558;-52
2022/01/16 12:49:04;;;;;;;23.67;14.73;;;5.70;99.90;;;;;;5120901;27;20164;-51
2022/01/16 12:51:33;;;;;;;37.92;18.08;;;5.70;99.90;;;;;;5122187;27;20164;-50
2022/01/16 12:54:17;;;;;;;33.65;18.80;;;6.60;99.90;;;;;;5116190;27;20200;-53
2022/01/16 12:56:52;;;;;;;36.75;21.15;;;5.70;99.90;;;;;;5110816;28;20213;-50
2022/01/16 12:59:24;;;;;;;35.45;19.88;;;5.80;99.90;;;;;;5110922;28;20247;-51
2022/01/16 13:01:50;;;;;;;36.95;20.27;;;6.00;99.90;;;;;;5110623;28;20175;-49
2022/01/16 13:04:29;;;;;;;30.33;17.25;;;6.00;99.90;;;;;;5110844;28;20205;-53
2022/01/16 13:06:57;;;;;;;33.50;18.83;;;6.00;99.90;;;;;;5110874;28;20524;-48
2022/01/16 13:09:23;;;;;;;33.92;18.15;;;5.90;99.90;;;;;;5092349;28;20172;-50
2022/01/16 13:11:52;;;;;;;34.03;18.98;;;5.90;99.90;;;;;;5110551;28;20224;-50
2022/01/16 13:14:20;;;;;;;31.73;18.08;;;5.90;99.90;;;;;;5111003;28;20384;-47
2022/01/16 13:16:49;;;;;;;28.17;15.95;;;5.90;99.90;;;;;;5110724;28;20161;-52
2022/01/16 13:19:18;;;;;;;21.58;12.77;;;5.90;99.90;;;;;;5110498;28;20173;-47
2022/01/16 13:21:58;;;;;;;30.70;16.58;;;5.80;99.90;;;;;;5110983;28;20165;-50
2022/01/16 13:24:49;;;;;;;27.98;15.98;;;5.90;99.90;;;;;;5110962;28;20256;-50
2022/01/16 13:27:31;;;;;;;25.80;15.15;;;5.80;99.90;;;;;;5110580;28;20627;-51